Argyle, Texas
Current Conditions -  °F | °C
As of 11:11 AM on Saturday 20 Dec 2014 (Local Time) from KDTO Reporting Station
Overcast Overcast  
Wind Chill: 44°   Ceiling: 700
Heat Index: 44°   Visibility: 8mi
Dew Point: 41°   Wind: 3mph
Humidity: 89%   Direction: 350°N
Pressure: 30.27"   Gusts: NA
Location:  33.12°N, 97.18°W
Report Text: KDTO 201711Z 35003KT 8SM BKN007 OVC020 07/05 A3027 RMK AO2 T00670050
Loading
Personal Weather Stations






























Interactive Weather Map New forecast layout! Learn more

10-Day Weather Forecast

Advertisements
Track Severe Weather on mobile